Palacios, Palacios Municipal Airport (KPSX)

NamePalacios Municipal Airport
CityPalacios
CountryUnited States
ICAOKPSX
IATAPSX
Altitude1 m
CoordinatesGoogle Map
Live Air TrafficLiveATC.net
METARKPSX 251753Z AUTO 36013KT 10SM -RA FEW036 BKN090 BKN110 25/22 A3003 RMK AO2 SLP167 P0008 60028 T02500217 10278 20244 50018
2019-06-25 17:53:00 Wind: North (360°) 6.69 m/s - Visibility: 16093.4 m - Weather: Light Rain - Temperature: 25 °C - Dew point: 22 °C - Humidity: 83.5% - Pressure: 1016.93 hPa
Statistics

The table below shows the detailed information of all flights to/from Palacios, Palacios Municipal Airport (KPSX).